createdAt,value
2023-04-16T00:02:57.417Z,6.67
2023-04-16T00:06:00.898Z,6.60
2023-04-16T00:09:04.456Z,6.57
2023-04-16T00:12:09.372Z,6.50
2023-04-16T00:15:12.289Z,6.43
2023-04-16T00:18:15.499Z,6.44
2023-04-16T00:21:18.412Z,6.36
2023-04-16T00:24:21.471Z,6.34
2023-04-16T00:27:24.236Z,6.31
2023-04-16T00:30:27.099Z,6.33
2023-04-16T00:33:30.577Z,6.27
2023-04-16T00:36:33.562Z,6.28
2023-04-16T00:39:39.183Z,6.29
2023-04-16T00:42:42.113Z,6.29
2023-04-16T00:45:44.695Z,6.34
2023-04-16T00:48:49.529Z,6.40
2023-04-16T00:51:52.470Z,6.37
2023-04-16T00:54:56.477Z,6.43
2023-04-16T00:57:58.938Z,6.45
2023-04-16T01:01:02.115Z,6.46
2023-04-16T01:04:07.207Z,6.45
2023-04-16T01:07:10.105Z,6.45
2023-04-16T01:10:16.731Z,6.41
2023-04-16T01:13:21.800Z,6.40
2023-04-16T01:16:26.921Z,6.44
2023-04-16T01:19:36.452Z,6.44
2023-04-16T01:22:39.140Z,6.48
2023-04-16T01:25:42.172Z,6.43
2023-04-16T01:28:44.844Z,6.30
2023-04-16T01:31:48.290Z,6.21
2023-04-16T01:34:51.724Z,6.24
2023-04-16T01:37:54.805Z,6.26
2023-04-16T01:40:59.950Z,6.25
2023-04-16T01:44:03.094Z,6.18
2023-04-16T01:47:08.526Z,6.20
2023-04-16T01:50:12.086Z,6.12
2023-04-16T01:53:16.686Z,6.11
2023-04-16T01:56:20.181Z,6.06
2023-04-16T01:59:23.072Z,6.00
2023-04-16T02:02:29.128Z,5.99
2023-04-16T02:05:32.276Z,5.99
2023-04-16T02:08:35.868Z,5.94
2023-04-16T02:11:39.096Z,5.91
2023-04-16T02:14:43.342Z,5.89
2023-04-16T02:17:48.722Z,5.87
2023-04-16T02:20:51.852Z,5.90
2023-04-16T02:23:54.412Z,5.99
2023-04-16T02:26:58.709Z,6.03
2023-04-16T02:30:04.896Z,6.03
2023-04-16T02:33:11.346Z,5.95
2023-04-16T02:36:14.855Z,6.05
2023-04-16T02:39:17.899Z,6.02
2023-04-16T02:42:21.428Z,5.95
2023-04-16T02:45:24.912Z,5.94
2023-04-16T02:48:27.712Z,5.86
2023-04-16T02:51:31.068Z,5.82
2023-04-16T02:54:35.949Z,5.74
2023-04-16T02:57:39.159Z,5.76
2023-04-16T03:00:41.965Z,5.75
2023-04-16T03:03:45.315Z,5.72
2023-04-16T03:06:48.998Z,5.70
2023-04-16T03:09:52.210Z,5.65
2023-04-16T03:12:56.915Z,5.61
2023-04-16T03:16:00.689Z,5.56
2023-04-16T03:19:06.747Z,5.48
2023-04-16T03:22:12.587Z,5.46
2023-04-16T03:25:15.502Z,5.42
2023-04-16T03:28:19.332Z,5.31
2023-04-16T03:31:24.607Z,5.23
2023-04-16T03:34:30.523Z,5.21
2023-04-16T03:37:33.845Z,5.18
2023-04-16T03:40:37.348Z,5.20
2023-04-16T03:43:40.161Z,5.26
2023-04-16T03:46:43.547Z,5.31
2023-04-16T03:49:46.914Z,5.36
2023-04-16T03:52:51.025Z,5.43
2023-04-16T03:55:55.391Z,5.52
2023-04-16T03:58:59.183Z,5.54
2023-04-16T04:02:02.576Z,5.61
2023-04-16T04:05:08.133Z,5.64
2023-04-16T04:08:12.411Z,5.52
2023-04-16T04:11:17.519Z,5.64
2023-04-16T04:14:21.776Z,5.60
2023-04-16T04:17:24.802Z,5.65
2023-04-16T04:20:29.012Z,5.71
2023-04-16T04:23:32.421Z,5.78
2023-04-16T04:26:36.195Z,5.81
2023-04-16T04:29:40.059Z,5.85
2023-04-16T04:32:43.063Z,5.92
2023-04-16T04:35:47.105Z,5.85
2023-04-16T04:38:51.616Z,5.87
2023-04-16T04:41:58.760Z,5.94
2023-04-16T04:45:01.889Z,6.01
2023-04-16T04:48:08.905Z,6.12
2023-04-16T04:51:11.905Z,6.18
2023-04-16T04:54:19.849Z,6.31
2023-04-16T04:57:25.243Z,6.35
2023-04-16T05:00:33.874Z,6.50
2023-04-16T05:03:39.740Z,6.53
2023-04-16T05:06:44.710Z,6.62
2023-04-16T05:09:52.685Z,6.59
2023-04-16T05:12:58.946Z,6.59
2023-04-16T05:16:02.113Z,6.65
2023-04-16T05:19:07.402Z,6.74
2023-04-16T05:22:11.183Z,6.82
2023-04-16T05:25:14.776Z,6.96
2023-04-16T05:28:24.636Z,7.07
2023-04-16T05:31:29.255Z,7.16
2023-04-16T05:34:35.237Z,7.20
2023-04-16T05:37:39.787Z,7.14
2023-04-16T05:40:50.630Z,7.37
2023-04-16T05:43:55.828Z,7.37
2023-04-16T05:47:09.573Z,7.37
2023-04-16T05:50:14.220Z,7.38
2023-04-16T05:53:19.148Z,7.48
2023-04-16T05:56:26.226Z,7.57
2023-04-16T05:59:32.007Z,7.73
2023-04-16T06:02:37.731Z,8.15
2023-04-16T06:05:47.955Z,8.71
2023-04-16T06:08:59.836Z,8.81
2023-04-16T06:12:11.945Z,9.51
2023-04-16T06:15:16.716Z,10.01
2023-04-16T06:18:23.717Z,9.40
2023-04-16T06:21:27.178Z,9.25
2023-04-16T06:24:45.603Z,9.20
2023-04-16T06:27:53.470Z,9.01
2023-04-16T06:30:58.310Z,8.84
2023-04-16T06:34:14.208Z,9.46
2023-04-16T06:37:19.186Z,9.56
2023-04-16T06:40:23.734Z,9.78
2023-04-16T06:43:35.413Z,10.33
2023-04-16T06:46:47.867Z,10.16
2023-04-16T06:49:58.204Z,10.10
2023-04-16T06:53:04.676Z,10.55
2023-04-16T06:56:09.425Z,11.03
2023-04-16T06:59:12.317Z,10.75
2023-04-16T07:02:21.088Z,11.84
2023-04-16T07:05:31.879Z,12.34
2023-04-16T07:08:36.694Z,11.57
2023-04-16T07:11:42.276Z,11.56
2023-04-16T07:14:56.911Z,11.35
2023-04-16T07:18:10.780Z,11.69
2023-04-16T07:21:23.416Z,11.51
2023-04-16T07:24:28.202Z,11.40
2023-04-16T07:27:31.880Z,11.36
2023-04-16T07:30:39.721Z,11.57
2023-04-16T07:33:43.832Z,11.08
2023-04-16T07:36:49.716Z,10.86
2023-04-16T07:40:00.698Z,10.53
2023-04-16T07:43:04.613Z,10.70
2023-04-16T07:46:15.723Z,10.55
2023-04-16T07:49:22.639Z,10.62
2023-04-16T07:52:27.913Z,10.78
2023-04-16T07:55:32.881Z,10.84
2023-04-16T07:58:37.259Z,11.26
2023-04-16T08:01:43.127Z,11.71
2023-04-16T08:04:57.019Z,12.29
2023-04-16T08:08:01.570Z,12.65
2023-04-16T08:11:20.688Z,12.48
2023-04-16T08:14:35.770Z,13.02
2023-04-16T08:17:39.781Z,12.36
2023-04-16T08:20:45.710Z,12.27
2023-04-16T08:23:56.428Z,12.10
2023-04-16T08:27:15.441Z,12.31
2023-04-16T08:30:25.782Z,12.11
2023-04-16T08:33:31.775Z,12.41
2023-04-16T08:36:41.989Z,12.35
2023-04-16T08:39:45.127Z,12.53
2023-04-16T08:43:01.733Z,12.82
2023-04-16T08:46:07.005Z,13.30
2023-04-16T08:49:18.395Z,12.84
2023-04-16T08:52:30.941Z,12.86
2023-04-16T08:55:47.870Z,12.95
2023-04-16T08:59:08.236Z,12.82
2023-04-16T09:02:15.858Z,12.52
2023-04-16T09:05:21.146Z,12.46
2023-04-16T09:08:32.762Z,12.70
2023-04-16T09:11:45.830Z,12.54
2023-04-16T09:14:58.749Z,12.62
2023-04-16T09:18:02.808Z,12.49
2023-04-16T09:21:07.948Z,12.43
2023-04-16T09:24:13.704Z,12.57
2023-04-16T09:27:26.097Z,12.59
2023-04-16T09:30:29.223Z,12.59
2023-04-16T09:33:47.651Z,12.86
2023-04-16T09:36:56.541Z,13.16
2023-04-16T09:40:08.686Z,13.27
2023-04-16T09:43:23.621Z,14.21
2023-04-16T09:46:48.675Z,14.50
2023-04-16T09:49:53.944Z,14.44
2023-04-16T09:53:10.642Z,14.44
2023-04-16T09:56:26.437Z,15.10
2023-04-16T09:59:38.087Z,15.49
2023-04-16T10:02:42.645Z,15.47
2023-04-16T10:05:46.978Z,15.40
2023-04-16T10:08:59.767Z,15.68
2023-04-16T10:12:11.613Z,15.68
2023-04-16T10:15:17.727Z,15.75
2023-04-16T10:18:26.509Z,15.69
2023-04-16T10:21:38.185Z,16.05
2023-04-16T10:24:47.238Z,15.35
2023-04-16T10:27:52.208Z,15.07
2023-04-16T10:30:58.720Z,14.89
2023-04-16T10:34:08.800Z,15.63
2023-04-16T10:37:18.069Z,16.12
2023-04-16T10:40:26.254Z,16.31
2023-04-16T10:43:42.784Z,17.07
2023-04-16T10:46:56.192Z,16.99
2023-04-16T10:50:00.545Z,17.09
2023-04-16T10:53:27.333Z,16.85
2023-04-16T10:56:33.149Z,16.15
2023-04-16T10:59:40.726Z,15.92
2023-04-16T11:02:44.229Z,15.71
2023-04-16T11:05:52.771Z,16.10
2023-04-16T11:09:03.345Z,15.82
2023-04-16T11:12:23.734Z,15.88
2023-04-16T11:15:35.116Z,15.90
2023-04-16T11:18:51.465Z,15.73
2023-04-16T11:21:57.894Z,16.22
2023-04-16T11:25:03.728Z,16.48
2023-04-16T11:28:07.934Z,16.80
2023-04-16T11:31:12.753Z,16.43
2023-04-16T11:34:23.287Z,16.45
2023-04-16T11:37:36.543Z,16.41
2023-04-16T11:40:49.118Z,16.42
2023-04-16T11:43:53.680Z,16.01
2023-04-16T11:47:07.857Z,16.03
2023-04-16T11:50:27.826Z,15.95
2023-04-16T11:53:32.253Z,16.03
2023-04-16T11:56:49.724Z,15.96
2023-04-16T12:00:02.140Z,15.82
2023-04-16T12:03:19.963Z,15.85
2023-04-16T12:06:26.180Z,15.91
2023-04-16T12:09:41.760Z,15.58
2023-04-16T12:12:51.652Z,15.58
2023-04-16T12:15:57.067Z,15.63
2023-04-16T12:19:12.004Z,15.67
2023-04-16T12:22:23.866Z,15.78
2023-04-16T12:25:32.267Z,15.87
2023-04-16T12:28:48.852Z,15.93
2023-04-16T12:31:59.610Z,16.01
2023-04-16T12:35:09.414Z,16.09
2023-04-16T12:38:15.523Z,16.25
2023-04-16T12:41:30.753Z,16.57
2023-04-16T12:44:33.980Z,16.62
2023-04-16T12:47:39.818Z,16.57
2023-04-16T12:50:53.957Z,16.78
2023-04-16T12:54:06.390Z,17.52
2023-04-16T12:57:11.699Z,17.24
2023-04-16T13:00:30.765Z,17.15
2023-04-16T13:03:45.957Z,16.87
2023-04-16T13:06:55.937Z,16.66
2023-04-16T13:10:00.472Z,16.59
2023-04-16T13:13:03.376Z,16.45
2023-04-16T13:16:08.815Z,16.41
2023-04-16T13:19:11.810Z,16.54
2023-04-16T13:22:19.473Z,16.54
2023-04-16T13:25:28.097Z,16.50
2023-04-16T13:28:38.627Z,16.37
2023-04-16T13:31:48.893Z,16.35
2023-04-16T13:35:07.029Z,16.37
2023-04-16T13:38:16.978Z,16.41
2023-04-16T13:41:32.713Z,16.48
2023-04-16T13:44:54.755Z,16.57
2023-04-16T13:48:01.506Z,16.51
2023-04-16T13:51:07.811Z,16.55
2023-04-16T13:54:11.302Z,16.60
2023-04-16T13:57:29.689Z,16.69
2023-04-16T14:00:34.199Z,16.68
2023-04-16T14:03:39.105Z,16.70
2023-04-16T14:06:43.678Z,16.76
2023-04-16T14:09:53.977Z,16.77
2023-04-16T14:12:59.764Z,16.80
2023-04-16T14:16:26.654Z,16.89
2023-04-16T14:19:34.801Z,16.93
2023-04-16T14:22:40.725Z,16.98
2023-04-16T14:25:55.840Z,17.14
2023-04-16T14:29:09.341Z,17.22
2023-04-16T14:32:26.082Z,17.05
2023-04-16T14:35:29.532Z,16.96
2023-04-16T14:38:37.845Z,17.03
2023-04-16T14:41:50.658Z,17.03
2023-04-16T14:45:01.922Z,17.08
2023-04-16T14:48:23.629Z,16.98
2023-04-16T14:51:39.634Z,16.80
2023-04-16T14:54:49.012Z,16.71
2023-04-16T14:57:53.764Z,16.63
2023-04-16T15:00:58.930Z,16.57
2023-04-16T15:04:09.819Z,16.42
2023-04-16T15:07:16.238Z,16.37
2023-04-16T15:10:30.341Z,16.39
2023-04-16T15:13:40.454Z,16.37
2023-04-16T15:16:46.979Z,16.34
2023-04-16T15:19:57.752Z,16.34
2023-04-16T15:23:09.735Z,16.24
2023-04-16T15:26:16.510Z,16.05
2023-04-16T15:29:23.616Z,16.02
2023-04-16T15:32:31.811Z,15.91
2023-04-16T15:35:39.834Z,15.88
2023-04-16T15:38:48.970Z,15.86
2023-04-16T15:44:59.584Z,15.80
2023-04-16T15:48:08.347Z,15.78
2023-04-16T15:51:15.335Z,15.78
2023-04-16T15:54:20.892Z,15.78
2023-04-16T15:57:32.636Z,15.80
2023-04-16T16:00:49.757Z,15.77
2023-04-16T16:04:17.697Z,15.69
2023-04-16T16:07:25.912Z,15.58
2023-04-16T16:10:32.168Z,15.46
2023-04-16T16:13:42.052Z,15.42
2023-04-16T16:16:58.642Z,15.40
2023-04-16T16:20:05.763Z,15.36
2023-04-16T16:23:20.848Z,15.35
2023-04-16T16:26:27.332Z,15.38
2023-04-16T16:29:32.166Z,15.39
2023-04-16T16:32:44.820Z,15.37
2023-04-16T16:35:56.697Z,15.34
2023-04-16T16:39:11.894Z,15.29
2023-04-16T16:42:24.216Z,15.23
2023-04-16T16:45:35.759Z,15.17
2023-04-16T16:48:44.778Z,15.15
2023-04-16T16:52:01.836Z,15.07
2023-04-16T16:55:13.041Z,14.99
2023-04-16T16:58:29.988Z,14.93
2023-04-16T17:01:36.806Z,14.86
2023-04-16T17:04:42.876Z,14.80
2023-04-16T17:07:54.026Z,14.74
2023-04-16T17:10:57.977Z,14.68
2023-04-16T17:14:08.170Z,14.59
2023-04-16T17:17:19.708Z,14.50
2023-04-16T17:20:33.056Z,14.43
2023-04-16T17:23:41.221Z,14.34
2023-04-16T17:26:45.354Z,14.27
2023-04-16T17:29:53.046Z,14.19
2023-04-16T17:33:10.776Z,14.11
2023-04-16T17:36:14.987Z,14.04
2023-04-16T17:39:37.947Z,13.96
2023-04-16T17:42:42.310Z,13.88
2023-04-16T17:45:58.923Z,13.81
2023-04-16T17:49:03.021Z,13.75
2023-04-16T17:52:07.032Z,13.68
2023-04-16T17:55:13.548Z,13.62
2023-04-16T17:58:20.560Z,13.55
2023-04-16T18:01:28.781Z,13.55
2023-04-16T18:04:45.849Z,13.54
2023-04-16T18:07:50.805Z,13.48
2023-04-16T18:11:21.635Z,13.53
2023-04-16T18:14:37.101Z,13.53
2023-04-16T18:17:41.105Z,13.51
2023-04-16T18:20:47.916Z,13.52
2023-04-16T18:24:00.754Z,13.51
2023-04-16T18:27:07.143Z,13.54
2023-04-16T18:30:20.173Z,13.48
2023-04-16T18:33:49.982Z,13.43
2023-04-16T18:36:52.147Z,13.38
2023-04-16T18:40:14.648Z,13.36
2023-04-16T18:43:20.752Z,13.30
2023-04-16T18:46:26.835Z,13.26
2023-04-16T18:49:37.748Z,13.21
2023-04-16T18:52:45.839Z,13.14
2023-04-16T18:55:55.092Z,13.07
2023-04-16T18:59:06.727Z,12.98
2023-04-16T19:02:15.700Z,12.89
2023-04-16T19:05:23.261Z,12.77
2023-04-16T19:08:27.771Z,12.82
2023-04-16T19:11:35.732Z,12.79
2023-04-16T19:14:39.780Z,12.75
2023-04-16T19:17:51.361Z,12.75
2023-04-16T19:21:09.661Z,12.73
2023-04-16T19:24:19.998Z,12.68
2023-04-16T19:27:24.115Z,12.63
2023-04-16T19:30:33.809Z,12.61
2023-04-16T19:33:47.037Z,12.57
2023-04-16T19:36:50.382Z,12.53
2023-04-16T19:40:00.728Z,12.48
2023-04-16T19:43:12.822Z,12.44
2023-04-16T19:46:29.633Z,12.41
2023-04-16T19:49:43.554Z,12.42
2023-04-16T19:52:51.730Z,12.42
2023-04-16T19:56:12.384Z,12.42
2023-04-16T19:59:17.734Z,12.43
2023-04-16T20:02:21.938Z,12.40
2023-04-16T20:05:29.334Z,12.36
2023-04-16T20:08:44.641Z,12.31
2023-04-16T20:11:49.750Z,12.26
2023-04-16T20:14:57.682Z,12.26
2023-04-16T20:18:02.933Z,12.26
2023-04-16T20:21:10.019Z,12.31
2023-04-16T20:24:15.548Z,12.31
2023-04-16T20:27:19.526Z,12.29
2023-04-16T20:30:29.810Z,12.28
2023-04-16T20:33:33.709Z,12.26
2023-04-16T20:36:39.013Z,12.24
2023-04-16T20:39:46.729Z,12.23
2023-04-16T20:42:52.423Z,12.19
2023-04-16T20:46:08.038Z,12.18
2023-04-16T20:49:18.898Z,12.10
2023-04-16T20:52:22.223Z,12.03
2023-04-16T20:55:25.881Z,12.01
2023-04-16T20:58:30.615Z,12.01
2023-04-16T21:01:33.802Z,12.00
2023-04-16T21:04:37.297Z,11.97
2023-04-16T21:07:49.797Z,11.95
2023-04-16T21:10:54.153Z,11.97
2023-04-16T21:13:57.961Z,12.00
2023-04-16T21:17:02.266Z,12.05
2023-04-16T21:20:07.911Z,12.09
2023-04-16T21:23:14.052Z,12.04
2023-04-16T21:26:18.113Z,12.12
2023-04-16T21:29:25.118Z,12.10
2023-04-16T21:32:28.778Z,12.10
2023-04-16T21:35:33.460Z,12.09
2023-04-16T21:38:38.979Z,12.16
2023-04-16T21:41:42.530Z,12.22
2023-04-16T21:44:49.354Z,12.35
2023-04-16T21:47:53.019Z,12.52
2023-04-16T21:51:10.127Z,12.89
2023-04-16T21:54:13.886Z,13.09
2023-04-16T21:57:18.297Z,12.95
2023-04-16T22:00:22.779Z,12.79
2023-04-16T22:03:26.786Z,12.64
2023-04-16T22:06:29.644Z,12.62
2023-04-16T22:09:32.604Z,12.55
2023-04-16T22:12:38.664Z,12.55
2023-04-16T22:15:41.476Z,12.46
2023-04-16T22:18:47.489Z,12.36
2023-04-16T22:21:50.388Z,12.24
2023-04-16T22:24:53.542Z,12.17
2023-04-16T22:28:06.431Z,12.07
2023-04-16T22:31:11.986Z,12.04
2023-04-16T22:34:16.094Z,11.95
2023-04-16T22:37:19.172Z,11.87
2023-04-16T22:40:22.435Z,11.80
2023-04-16T22:43:25.545Z,11.73
2023-04-16T22:46:28.917Z,11.68
2023-04-16T22:49:33.304Z,11.64
2023-04-16T22:52:37.090Z,11.58
2023-04-16T22:55:39.959Z,11.57
2023-04-16T22:58:42.454Z,11.55
2023-04-16T23:01:46.772Z,11.47
2023-04-16T23:04:49.483Z,11.42
2023-04-16T23:07:56.247Z,11.38
2023-04-16T23:11:01.710Z,11.35
2023-04-16T23:14:07.880Z,11.26
2023-04-16T23:17:10.643Z,11.25
2023-04-16T23:20:15.079Z,11.23
2023-04-16T23:23:18.545Z,11.21
2023-04-16T23:26:21.881Z,11.20
2023-04-16T23:29:24.599Z,11.18
2023-04-16T23:32:28.037Z,11.17
2023-04-16T23:35:31.070Z,11.16
2023-04-16T23:38:35.969Z,11.15
2023-04-16T23:41:40.456Z,11.11
2023-04-16T23:44:44.613Z,11.09
2023-04-16T23:47:47.403Z,11.05
2023-04-16T23:50:50.470Z,11.05
2023-04-16T23:53:53.440Z,11.06
2023-04-16T23:56:59.997Z,11.08
